Time;durP1;ratioP1;P1;durP2;ratioP2;P2;SDS_P1;SDS_P2;PMS_P1;PMS_P2;Temp;Humidity;BMP_temperature;BMP_pressure;BME280_temperature;BME280_humidity;BME280_pressure;Samples;Min_cycle;Max_cycle;Signal;HPM_P1;HPM_P2
2023/03/10 00:00:43;;;;;;;31.58;21.60;;;;;;;5.70;100.00;98667.78;5052050;28;20481;-76
2023/03/10 00:03:09;;;;;;;32.53;21.50;;;;;;;5.69;100.00;98671.34;5050914;28;20052;-76
2023/03/10 00:05:36;;;;;;;36.03;21.73;;;;;;;5.66;100.00;98678.50;5053631;28;20572;-76
2023/03/10 00:08:02;;;;;;;27.65;20.38;;;;;;;5.64;100.00;98683.03;5071581;28;20063;-76
2023/03/10 00:10:28;;;;;;;29.70;20.35;;;;;;;5.63;100.00;98672.72;5069573;28;20028;-76
2023/03/10 00:12:54;;;;;;;24.63;19.13;;;;;;;5.66;100.00;98675.88;5069526;28;20138;-76
2023/03/10 00:15:19;;;;;;;30.77;19.83;;;;;;;5.65;100.00;98670.81;5071177;28;20492;-76
2023/03/10 00:17:45;;;;;;;30.27;20.30;;;;;;;5.67;100.00;98676.72;5068265;28;20524;-76
2023/03/10 00:20:15;;;;;;;27.77;20.60;;;;;;;5.69;100.00;98672.19;5070674;28;20040;-76
2023/03/10 00:22:49;;;;;;;28.95;20.67;;;;;;;5.68;100.00;98670.53;5053022;28;20041;-76
2023/03/10 00:25:15;;;;;;;27.08;20.48;;;;;;;5.66;100.00;98662.84;5069564;28;20028;-76
2023/03/10 00:27:40;;;;;;;29.88;20.30;;;;;;;5.65;100.00;98663.81;5070741;28;20080;-76
2023/03/10 00:30:07;;;;;;;29.30;20.67;;;;;;;5.63;100.00;98665.72;5051647;28;20082;-76
2023/03/10 00:32:36;;;;;;;57.40;24.35;;;;;;;5.63;100.00;98657.06;5070118;28;20032;-76
2023/03/10 00:35:02;;;;;;;39.58;21.75;;;;;;;5.61;100.00;98659.00;5069076;28;20031;-76
2023/03/10 00:37:28;;;;;;;38.30;21.40;;;;;;;5.57;100.00;98660.19;5072536;28;20029;-76
2023/03/10 00:39:54;;;;;;;29.27;19.80;;;;;;;5.58;100.00;98659.22;5047868;28;20045;-76
2023/03/10 00:42:19;;;;;;;38.03;21.67;;;;;;;5.58;100.00;98665.28;5049423;28;20750;-76
2023/03/10 00:44:45;;;;;;;48.83;23.13;;;;;;;5.58;100.00;98662.66;5048040;28;20051;-76
2023/03/10 00:47:11;;;;;;;42.65;22.13;;;;;;;5.60;100.00;98668.59;5048060;28;21093;-76
2023/03/10 00:49:37;;;;;;;27.13;20.25;;;;;;;5.62;100.00;98666.69;5047106;28;20125;-76
2023/03/10 00:52:03;;;;;;;31.52;21.70;;;;;;;5.68;100.00;98669.69;5048521;28;20024;-76
2023/03/10 00:54:40;;;;;;;32.83;21.60;;;;;;;5.72;100.00;98671.06;5047954;28;20053;-76
2023/03/10 00:57:06;;;;;;;30.85;20.63;;;;;;;5.77;100.00;98668.88;5049598;28;20496;-76
2023/03/10 00:59:32;;;;;;;52.90;23.33;;;;;;;5.87;100.00;98665.31;5046593;28;20879;-77
2023/03/10 01:01:58;;;;;;;33.90;21.17;;;;;;;5.96;100.00;98674.13;5049481;28;20103;-77
2023/03/10 01:04:23;;;;;;;30.00;20.40;;;;;;;6.04;100.00;98660.41;5048323;28;20033;-78
2023/03/10 01:06:49;;;;;;;30.60;19.33;;;;;;;6.12;100.00;98674.41;5048458;28;20021;-77
2023/03/10 01:09:15;;;;;;;27.55;18.33;;;;;;;6.24;100.00;98662.84;5035289;28;20033;-75
2023/03/10 01:11:41;;;;;;;26.23;16.77;;;;;;;6.38;100.00;98664.19;5030326;28;20029;-76
2023/03/10 01:14:10;;;;;;;29.40;17.00;;;;;;;6.50;100.00;98659.63;5029723;28;20109;-76
2023/03/10 01:16:36;;;;;;;24.05;15.65;;;;;;;6.58;100.00;98655.34;5048967;28;20029;-76
2023/03/10 01:19:04;;;;;;;24.30;15.98;;;;;;;6.71;100.00;98657.63;5048582;28;20043;-77
2023/03/10 01:21:35;;;;;;;23.70;15.20;;;;;;;6.84;100.00;98646.88;5048285;28;20021;-77
2023/03/10 01:24:01;;;;;;;23.27;15.55;;;;;;;6.95;100.00;98651.09;5049230;28;20037;-77
2023/03/10 01:26:28;;;;;;;22.08;15.13;;;;;;;7.04;100.00;98639.75;5048008;28;20119;-76
2023/03/10 01:28:53;;;;;;;26.17;16.35;;;;;;;7.21;100.00;98641.63;5050185;28;20033;-77
2023/03/10 01:31:19;;;;;;;23.25;15.65;;;;;;;7.26;100.00;98631.53;5050159;28;20035;-77
2023/03/10 01:33:45;;;;;;;23.70;16.58;;;;;;;7.38;100.00;98632.97;5049435;28;20111;-79
2023/03/10 01:36:17;;;;;;;22.08;15.77;;;;;;;7.37;100.00;98635.72;5049525;28;20013;-77
2023/03/10 01:39:01;;;;;;;23.23;16.60;;;;;;;7.44;100.00;98629.75;5048730;28;20073;-77
2023/03/10 01:41:26;;;;;;;23.58;16.35;;;;;;;7.47;100.00;98629.47;5050362;28;20028;-77
2023/03/10 01:43:57;;;;;;;23.83;15.95;;;;;;;7.49;100.00;98630.13;5046195;28;20390;-77
2023/03/10 01:46:26;;;;;;;22.77;16.40;;;;;;;7.57;100.00;98631.19;5042367;28;20067;-77
2023/03/10 01:48:58;;;;;;;20.45;16.73;;;;;;;7.54;100.00;98622.66;5032028;28;20036;-77
2023/03/10 01:51:24;;;;;;;21.98;16.55;;;;;;;7.52;100.00;98605.47;5030933;28;20513;-78
2023/03/10 01:54:01;;;;;;;28.67;16.30;;;;;;;7.50;100.00;98617.88;5049278;28;20025;-77
2023/03/10 01:56:37;;;;;;;23.58;15.93;;;;;;;7.59;100.00;98618.75;5029825;28;20032;-75
2023/03/10 01:59:03;;;;;;;23.85;15.68;;;;;;;7.60;100.00;98617.78;5046758;28;20119;-77
2023/03/10 02:01:30;;;;;;;20.55;16.02;;;;;;;7.66;100.00;98609.38;5043161;28;20442;-78
2023/03/10 02:04:04;;;;;;;22.25;16.38;;;;;;;7.69;100.00;98609.06;5048029;28;20486;-78
2023/03/10 02:06:31;;;;;;;23.17;16.05;;;;;;;7.70;100.00;98610.72;5047931;28;20086;-77
2023/03/10 02:09:10;;;;;;;27.27;16.50;;;;;;;7.73;100.00;98620.88;5029354;28;20032;-78
2023/03/10 02:11:39;;;;;;;23.17;16.98;;;;;;;7.79;100.00;98615.03;5029599;28;20033;-77
2023/03/10 02:14:05;;;;;;;20.80;15.68;;;;;;;7.82;100.00;98607.69;5030628;28;20100;-77
2023/03/10 02:16:31;;;;;;;19.83;15.50;;;;;;;7.87;100.00;98609.88;5035502;28;20363;-77
2023/03/10 02:19:02;;;;;;;19.60;15.00;;;;;;;7.88;100.00;98605.44;5048446;28;20029;-77
2023/03/10 02:22:03;;;;;;;19.45;14.98;;;;;;;7.89;100.00;98600.06;5055709;28;20044;-77
2023/03/10 02:24:29;;;;;;;19.10;13.80;;;;;;;7.88;100.00;98587.94;5033876;28;20036;-76
2023/03/10 02:27:20;;;;;;;18.40;14.07;;;;;;;7.87;100.00;98594.16;5051496;28;20021;-77
2023/03/10 02:29:48;;;;;;;18.63;14.05;;;;;;;7.87;100.00;98583.69;5052938;28;20083;-77
2023/03/10 02:32:14;;;;;;;18.38;13.05;;;;;;;7.88;100.00;98576.66;5049022;28;20403;-77
2023/03/10 02:34:40;;;;;;;18.60;13.50;;;;;;;7.86;100.00;98574.19;5054366;28;20021;-77
2023/03/10 02:37:06;;;;;;;18.90;13.60;;;;;;;7.88;100.00;98571.41;5051996;28;20025;-77
2023/03/10 02:39:37;;;;;;;19.15;13.25;;;;;;;7.86;100.00;98566.34;5034714;28;20512;-77
2023/03/10 02:42:03;;;;;;;19.15;13.25;;;;;;;7.82;100.00;98567.63;5051620;28;20047;-77
2023/03/10 02:44:29;;;;;;;16.48;12.25;;;;;;;7.86;100.00;98576.81;5052473;28;20104;-76
2023/03/10 02:46:55;;;;;;;16.90;12.25;;;;;;;7.86;100.00;98574.19;5052505;28;20039;-77
2023/03/10 02:49:24;;;;;;;17.42;12.52;;;;;;;7.81;100.00;98565.97;5043047;28;20029;-78
2023/03/10 02:52:12;;;;;;;15.30;12.77;;;;;;;7.83;100.00;98558.78;5042520;28;20021;-77
2023/03/10 02:54:40;;;;;;;17.70;12.35;;;;;;;7.81;100.00;98558.13;5052282;28;20025;-76
2023/03/10 02:57:09;;;;;;;18.60;12.43;;;;;;;7.79;100.00;98555.66;5052142;28;20016;-77
2023/03/10 02:59:42;;;;;;;22.25;11.80;;;;;;;7.80;100.00;98554.69;5050093;28;20397;-77
2023/03/10 03:02:07;;;;;;;17.25;11.05;;;;;;;7.76;100.00;98547.28;5050255;28;20104;-76
2023/03/10 03:04:33;;;;;;;17.88;11.77;;;;;;;7.74;100.00;98547.44;5030897;28;20565;-76
2023/03/10 03:06:58;;;;;;;17.60;11.27;;;;;;;7.70;100.00;98543.47;5032759;28;20037;-77
2023/03/10 03:09:24;;;;;;;16.42;11.27;;;;;;;7.70;100.00;98538.25;5050413;28;20021;-77
2023/03/10 03:11:49;;;;;;;15.65;11.40;;;;;;;7.69;100.00;98534.00;5050885;28;20033;-77
2023/03/10 03:14:15;;;;;;;16.83;11.57;;;;;;;7.69;100.00;98535.78;5046633;28;20079;-77
2023/03/10 03:16:53;;;;;;;16.25;11.60;;;;;;;7.69;100.00;98534.00;5014492;28;20075;-77
2023/03/10 03:19:47;;;;;;;17.35;10.98;;;;;;;7.72;100.00;98535.47;5040479;28;20047;-76
2023/03/10 03:22:12;;;;;;;21.35;10.85;;;;;;;7.68;100.00;98523.66;5033435;28;20036;-77
2023/03/10 03:24:38;;;;;;;17.17;10.55;;;;;;;7.71;100.00;98528.59;5052009;28;20033;-77
2023/03/10 03:27:15;;;;;;;15.20;10.15;;;;;;;7.71;100.00;98531.22;5050201;28;20025;-77
2023/03/10 03:29:40;;;;;;;15.25;9.65;;;;;;;7.76;100.00;98523.72;5051268;28;20037;-77
2023/03/10 03:32:06;;;;;;;18.27;9.52;;;;;;;7.73;100.00;98527.47;5050695;28;20074;-77
2023/03/10 03:34:31;;;;;;;16.20;9.52;;;;;;;7.77;100.00;98528.81;5049574;28;20181;-77
2023/03/10 03:37:03;;;;;;;18.27;8.90;;;;;;;7.81;100.00;98531.94;5050376;28;20021;-77
2023/03/10 03:39:36;;;;;;;21.02;9.13;;;;;;;7.83;100.00;98527.38;5062789;28;20095;-77
2023/03/10 03:42:02;;;;;;;18.75;8.52;;;;;;;7.84;100.00;98526.41;5058289;28;20031;-77
2023/03/10 03:44:27;;;;;;;15.70;8.52;;;;;;;7.87;100.00;98528.72;5053420;28;20475;-78
2023/03/10 03:46:52;;;;;;;18.98;8.13;;;;;;;7.88;100.00;98525.13;5070181;28;20024;-77
2023/03/10 03:49:18;;;;;;;18.33;7.88;;;;;;;7.88;100.00;98525.13;5052285;28;20111;-77
2023/03/10 03:51:43;;;;;;;16.40;7.53;;;;;;;7.91;100.00;98535.28;5053534;28;20051;-77
2023/03/10 03:54:08;;;;;;;24.98;8.20;;;;;;;7.91;100.00;98523.97;5070727;28;20036;-77
2023/03/10 03:56:34;;;;;;;19.33;7.90;;;;;;;7.90;100.00;98520.53;5071272;28;20063;-77
2023/03/10 03:59:06;;;;;;;21.38;7.57;;;;;;;7.90;100.00;98523.16;5070165;28;20120;-77
2023/03/10 04:04:23;;;;;;;13.57;6.63;;;;;;;7.92;100.00;98515.16;5055913;28;19924;-77
2023/03/10 04:06:48;;;;;;;17.38;6.88;;;;;;;7.97;100.00;98524.19;5060172;28;20043;-76
2023/03/10 04:09:14;;;;;;;16.70;6.35;;;;;;;7.95;100.00;98505.19;5068945;28;20032;-77
2023/03/10 04:11:39;;;;;;;18.58;6.63;;;;;;;7.95;100.00;98512.22;5070077;28;20033;-77
2023/03/10 04:14:05;;;;;;;17.17;6.65;;;;;;;7.96;100.00;98512.06;5070255;28;20024;-77
2023/03/10 04:16:30;;;;;;;20.13;6.20;;;;;;;7.96;100.00;98506.00;5069942;28;20020;-77
2023/03/10 04:19:01;;;;;;;17.63;6.00;;;;;;;7.95;100.00;98512.22;5052442;28;20051;-76
2023/03/10 04:21:27;;;;;;;14.68;6.43;;;;;;;7.98;100.00;98504.06;5069685;28;20366;-77
2023/03/10 04:23:53;;;;;;;14.85;5.45;;;;;;;7.96;100.00;98512.06;5067687;28;20059;-77
2023/03/10 04:26:21;;;;;;;14.48;5.68;;;;;;;7.96;100.00;98511.25;5070380;28;20111;-77
2023/03/10 04:28:47;;;;;;;19.13;5.57;;;;;;;7.96;100.00;98511.25;5051053;28;20400;-77
2023/03/10 04:31:21;;;;;;;16.98;5.18;;;;;;;7.95;100.00;98505.19;5069137;28;20036;-77
2023/03/10 04:33:52;;;;;;;16.63;5.03;;;;;;;7.91;100.00;98516.13;5069749;28;20038;-77
2023/03/10 04:36:18;;;;;;;18.15;4.68;;;;;;;7.86;100.00;98511.34;5069678;28;20028;-77
2023/03/10 04:38:44;;;;;;;20.60;4.82;;;;;;;7.85;100.00;98509.72;5067948;28;20128;-76
2023/03/10 04:41:21;;;;;;;18.08;5.13;;;;;;;7.81;100.00;98497.91;5042504;28;20119;-77
2023/03/10 04:43:47;;;;;;;15.65;4.80;;;;;;;7.80;100.00;98498.88;5030278;28;20026;-77
2023/03/10 04:46:13;;;;;;;20.27;5.20;;;;;;;7.75;100.00;98493.28;5034550;28;20059;-77
2023/03/10 04:48:39;;;;;;;17.05;4.95;;;;;;;7.74;100.00;98491.66;5049222;28;20025;-77
2023/03/10 04:54:10;;;;;;;16.13;4.30;;;;;;;7.71;100.00;98487.53;5046811;28;20481;-76
2023/03/10 04:56:35;;;;;;;20.48;4.93;;;;;;;7.70;100.00;98488.53;5028171;28;20029;-77
2023/03/10 04:59:04;;;;;;;19.55;4.78;;;;;;;7.69;100.00;98491.28;5040735;28;20033;-77
2023/03/10 05:01:33;;;;;;;13.68;4.47;;;;;;;7.69;100.00;98493.91;5049995;28;20079;-76
2023/03/10 05:04:00;;;;;;;14.88;4.05;;;;;;;7.72;100.00;98493.59;5050086;28;20017;-76
2023/03/10 05:06:28;;;;;;;18.48;4.30;;;;;;;7.70;100.00;98485.09;5049827;28;20040;-77
2023/03/10 05:08:55;;;;;;;19.83;4.63;;;;;;;7.70;100.00;98488.53;5032525;28;20040;-76
2023/03/10 05:11:24;;;;;;;20.33;4.53;;;;;;;7.69;100.00;98484.25;5050695;28;20067;-76
2023/03/10 05:13:49;;;;;;;21.63;4.80;;;;;;;7.67;100.00;98480.97;5039208;28;20029;-76
2023/03/10 05:16:17;;;;;;;17.85;4.53;;;;;;;7.68;100.00;98485.25;5029133;28;20032;-76
2023/03/10 05:18:43;;;;;;;21.30;5.30;;;;;;;7.69;100.00;98486.88;5045312;28;20032;-76
2023/03/10 05:21:11;;;;;;;20.65;5.35;;;;;;;7.70;100.00;98482.47;5048823;28;20037;-77
2023/03/10 05:23:40;;;;;;;16.10;4.60;;;;;;;7.69;100.00;98488.69;5031201;28;20128;-77
2023/03/10 05:26:08;;;;;;;20.48;5.05;;;;;;;7.68;100.00;98487.03;5047491;28;20017;-77
2023/03/10 05:28:35;;;;;;;19.85;4.70;;;;;;;7.68;100.00;98487.03;5047902;28;20025;-77
2023/03/10 05:31:09;;;;;;;22.02;5.53;;;;;;;7.68;100.00;98485.25;5015292;28;20032;-77
2023/03/10 05:33:46;;;;;;;18.67;4.95;;;;;;;7.67;100.00;98490.63;5025913;28;20063;-77
2023/03/10 05:36:15;;;;;;;16.83;4.70;;;;;;;7.67;100.00;98495.84;5011565;28;20033;-76
2023/03/10 05:38:40;;;;;;;22.25;5.50;;;;;;;7.67;100.00;98493.25;5047497;28;20044;-77
2023/03/10 05:41:07;;;;;;;24.77;5.47;;;;;;;7.67;100.00;98496.69;5053281;28;20024;-77
2023/03/10 05:43:36;;;;;;;19.77;4.93;;;;;;;7.66;100.00;98496.84;5067394;28;20041;-77
2023/03/10 05:46:02;;;;;;;20.75;5.38;;;;;;;7.67;100.00;98486.22;5067747;28;20032;-77
2023/03/10 05:48:33;;;;;;;20.13;5.30;;;;;;;7.66;100.00;98489.81;5049824;28;20029;-77
2023/03/10 05:51:09;;;;;;;23.55;5.55;;;;;;;7.69;100.00;98493.91;5053383;28;20028;-77
2023/03/10 05:53:35;;;;;;;22.67;5.20;;;;;;;7.65;100.00;98495.19;5064048;28;20115;-77
2023/03/10 05:56:05;;;;;;;22.58;5.22;;;;;;;7.65;100.00;98496.00;5068699;28;20025;-76
2023/03/10 05:58:30;;;;;;;27.98;6.75;;;;;;;7.67;100.00;98493.25;5067594;28;20020;-77
2023/03/10 06:00:56;;;;;;;26.67;6.22;;;;;;;7.65;100.00;98495.19;5048287;28;20024;-77
2023/03/10 06:03:24;;;;;;;21.02;5.70;;;;;;;7.67;100.00;98495.84;5050963;28;20477;-77
2023/03/10 06:05:49;;;;;;;21.35;5.22;;;;;;;7.65;100.00;98496.00;5046694;28;20048;-77
2023/03/10 06:08:29;;;;;;;29.98;5.90;;;;;;;7.68;100.00;98502.75;5067779;28;20028;-77
2023/03/10 06:10:56;;;;;;;24.70;5.53;;;;;;;7.65;100.00;98498.63;5068678;28;20036;-77
2023/03/10 06:13:22;;;;;;;24.77;5.50;;;;;;;7.66;100.00;98495.03;5050105;28;20025;-77
2023/03/10 06:15:55;;;;;;;20.13;5.18;;;;;;;7.66;100.00;98495.03;5068248;28;20078;-77
2023/03/10 06:18:34;;;;;;;27.52;5.25;;;;;;;7.69;100.00;98510.44;5068712;28;20055;-77
2023/03/10 06:21:17;;;;;;;21.73;5.47;;;;;;;7.68;100.00;98508.78;5065200;28;20040;-76
2023/03/10 06:23:44;;;;;;;20.80;5.10;;;;;;;7.69;100.00;98509.63;5046542;28;20132;-77
2023/03/10 06:26:14;;;;;;;20.33;5.15;;;;;;;7.68;100.00;98507.97;5050002;28;20025;-77
2023/03/10 06:28:44;;;;;;;22.88;5.60;;;;;;;7.69;100.00;98514.84;5050134;28;20039;-77
2023/03/10 06:31:18;;;;;;;22.20;6.00;;;;;;;7.74;100.00;98517.81;5049044;28;20032;-77
2023/03/10 06:33:44;;;;;;;21.10;6.00;;;;;;;7.77;100.00;98512.28;5049420;28;20484;-77
2023/03/10 06:36:11;;;;;;;19.13;5.55;;;;;;;7.78;100.00;98506.06;5067235;28;20032;-76
2023/03/10 06:38:37;;;;;;;20.27;5.75;;;;;;;7.76;100.00;98502.78;5049259;28;20820;-77
2023/03/10 06:41:05;;;;;;;10.57;4.80;;;;;;;7.76;100.00;98508.03;5057280;28;20043;-76
2023/03/10 06:43:31;;;;;;;14.05;5.03;;;;;;;7.78;100.00;98509.50;5049585;28;20028;-77
2023/03/10 06:45:57;;;;;;;14.45;5.22;;;;;;;7.74;100.00;98512.59;5071200;28;20060;-77
2023/03/10 06:48:23;;;;;;;15.57;5.38;;;;;;;7.74;100.00;98512.59;5068372;28;20426;-77
2023/03/10 06:50:58;;;;;;;16.38;4.90;;;;;;;7.75;100.00;98503.75;5067281;28;20028;-76
2023/03/10 06:53:24;;;;;;;12.02;4.88;;;;;;;7.77;100.00;98514.91;5067934;28;20048;-77
2023/03/10 06:55:57;;;;;;;16.38;4.97;;;;;;;7.79;100.00;98518.19;5064407;28;20031;-76
2023/03/10 06:58:23;;;;;;;11.40;4.70;;;;;;;7.82;100.00;98512.63;5066554;28;20063;-76
2023/03/10 07:00:49;;;;;;;13.52;5.00;;;;;;;7.83;100.00;98515.09;5067966;28;20473;-77
2023/03/10 07:03:15;;;;;;;13.10;4.47;;;;;;;7.88;100.00;98513.81;5068632;28;20063;-77
2023/03/10 07:05:41;;;;;;;14.32;4.75;;;;;;;7.88;100.00;98514.63;5069754;28;20334;-77
2023/03/10 07:08:07;;;;;;;14.25;5.40;;;;;;;7.92;100.00;98510.75;5072608;28;20473;-76
2023/03/10 07:10:32;;;;;;;19.67;5.72;;;;;;;7.96;100.00;98521.72;5072082;28;20028;-76
2023/03/10 07:13:08;;;;;;;18.13;6.07;;;;;;;8.01;100.00;98515.06;5071502;28;20020;-77
2023/03/10 07:15:33;;;;;;;19.85;6.72;;;;;;;8.05;100.00;98519.03;5072205;28;20062;-77
2023/03/10 07:18:08;;;;;;;18.38;5.57;;;;;;;8.07;100.00;98522.31;5070574;28;20028;-77
2023/03/10 07:20:34;;;;;;;19.55;5.45;;;;;;;8.15;100.00;98524.97;5066307;28;20064;-75
2023/03/10 07:22:59;;;;;;;20.05;5.22;;;;;;;8.18;100.00;98526.44;5070377;28;20067;-76
2023/03/10 07:25:25;;;;;;;21.00;5.30;;;;;;;8.19;100.00;98528.09;5070543;28;20030;-78
2023/03/10 07:27:54;;;;;;;20.50;5.20;;;;;;;8.26;100.00;98526.50;5070179;28;20059;-77
2023/03/10 07:30:20;;;;;;;18.10;4.82;;;;;;;8.39;100.00;98521.66;5069977;28;20032;-76
2023/03/10 07:32:45;;;;;;;24.80;5.07;;;;;;;8.52;100.00;98534.34;5069290;28;20070;-76
2023/03/10 07:35:10;;;;;;;19.45;5.00;;;;;;;8.62;100.00;98528.97;5050559;28;20196;-76
2023/03/10 07:37:45;;;;;;;18.17;4.15;;;;;;;8.82;100.00;98534.81;5067288;28;20026;-76
2023/03/10 07:40:11;;;;;;;19.95;4.25;;;;;;;8.92;100.00;98540.72;5052091;28;20066;-76
2023/03/10 07:42:38;;;;;;;22.75;4.47;;;;;;;8.96;100.00;98537.63;5070134;28;20095;-76
2023/03/10 07:45:04;;;;;;;19.58;3.90;;;;;;;9.03;100.00;98543.03;5070991;28;20032;-77
2023/03/10 07:47:30;;;;;;;16.25;4.28;;;;;;;9.17;100.00;98546.84;5070244;28;20104;-75
2023/03/10 07:49:55;;;;;;;13.98;3.20;;;;;;;9.25;100.00;98534.59;5070751;28;20612;-75
2023/03/10 07:52:21;;;;;;;13.63;3.63;;;;;;;9.36;100.00;98544.75;5071197;28;20532;-76
2023/03/10 07:54:48;;;;;;;13.27;3.30;;;;;;;9.40;100.00;98546.06;5073790;28;20016;-77
2023/03/10 07:57:15;;;;;;;17.45;3.70;;;;;;;9.42;100.00;98538.84;5072726;28;20028;-76
2023/03/10 07:59:41;;;;;;;12.75;3.10;;;;;;;9.42;100.00;98536.22;5071231;28;20024;-76
2023/03/10 08:02:06;;;;;;;14.60;2.80;;;;;;;9.46;100.00;98543.78;5071181;28;20032;-76
2023/03/10 08:04:32;;;;;;;13.27;2.83;;;;;;;9.44;100.00;98546.56;5081326;28;20390;-76
2023/03/10 08:07:00;;;;;;;13.32;3.35;;;;;;;9.46;100.00;98533.28;5072288;28;20107;-76
2023/03/10 08:09:28;;;;;;;15.57;3.60;;;;;;;9.48;100.00;98536.56;5071480;28;20056;-76
2023/03/10 08:11:54;;;;;;;13.18;2.90;;;;;;;9.55;100.00;98540.16;5068348;28;20453;-76
2023/03/10 08:14:22;;;;;;;15.32;2.92;;;;;;;9.56;100.00;98537.38;5054147;28;20051;-76
2023/03/10 08:16:48;;;;;;;13.45;2.85;;;;;;;9.65;100.00;98548.72;5063113;28;20016;-76
2023/03/10 08:19:24;;;;;;;11.07;3.05;;;;;;;9.68;100.00;98537.88;5051120;28;20025;-76
2023/03/10 08:21:56;;;;;;;12.05;2.90;;;;;;;9.81;100.00;98540.84;5066517;28;20115;-75
2023/03/10 08:24:23;;;;;;;13.43;3.65;;;;;;;9.93;100.00;98550.00;5071286;28;20103;-75
2023/03/10 08:27:18;;;;;;;10.20;2.88;;;;;;;10.07;100.00;98545.09;5071288;28;20024;-76
2023/03/10 08:29:43;;;;;;;13.93;3.33;;;;;;;10.10;100.00;98545.56;5052276;28;20029;-76
2023/03/10 08:32:12;;;;;;;13.45;3.40;;;;;;;10.05;100.00;98546.06;5070041;28;20028;-76
2023/03/10 08:34:38;;;;;;;12.48;3.17;;;;;;;10.06;100.00;98546.88;5063423;28;20035;-76
2023/03/10 08:37:23;;;;;;;14.38;3.63;;;;;;;10.11;100.00;98546.38;5071825;28;20056;-77
2023/03/10 08:39:52;;;;;;;14.20;3.35;;;;;;;10.01;100.00;98542.13;5055373;28;20096;-77
2023/03/10 08:42:17;;;;;;;11.23;3.05;;;;;;;10.11;100.00;98543.75;5048244;28;20083;-77
2023/03/10 08:44:42;;;;;;;10.77;3.15;;;;;;;10.26;100.00;98540.28;5050882;28;20484;-77
2023/03/10 08:47:29;;;;;;;12.32;3.30;;;;;;;10.42;100.00;98541.25;5038307;28;20040;-77
2023/03/10 08:49:54;;;;;;;11.85;2.95;;;;;;;10.59;100.00;98541.03;5034561;28;20444;-79
2023/03/10 08:52:23;;;;;;;12.23;2.85;;;;;;;10.85;100.00;98547.84;5050153;28;20032;-79
2023/03/10 08:54:52;;;;;;;14.80;3.60;;;;;;;11.02;100.00;98546.75;5050531;28;20550;-76
2023/03/10 08:57:18;;;;;;;16.25;3.05;;;;;;;10.88;100.00;98550.13;5048440;28;20112;-77
2023/03/10 08:59:52;;;;;;;13.60;3.00;;;;;;;10.90;100.00;98545.50;5049877;28;20036;-76
2023/03/10 09:02:20;;;;;;;12.77;3.22;;;;;;;10.80;100.00;98552.75;5049925;28;20056;-76
2023/03/10 09:04:45;;;;;;;11.20;3.17;;;;;;;10.71;100.00;98545.91;5049294;28;20036;-76
2023/03/10 09:07:11;;;;;;;13.25;2.88;;;;;;;10.68;100.00;98547.06;5052507;28;20235;-75
2023/03/10 09:09:36;;;;;;;11.18;3.10;;;;;;;10.69;100.00;98543.44;5047399;28;20116;-78
2023/03/10 09:12:03;;;;;;;12.75;3.30;;;;;;;10.65;100.00;98542.97;5048595;28;20064;-78
2023/03/10 09:14:28;;;;;;;9.30;2.45;;;;;;;10.67;100.00;98546.25;5049422;28;20036;-78
2023/03/10 09:16:53;;;;;;;10.38;2.83;;;;;;;10.72;100.00;98539.66;5049186;28;20025;-78
2023/03/10 09:19:19;;;;;;;12.30;3.00;;;;;;;10.75;100.00;98537.50;5049388;28;20032;-78
2023/03/10 09:21:44;;;;;;;10.95;2.70;;;;;;;10.77;100.00;98534.69;5050482;28;20045;-78
2023/03/10 09:24:10;;;;;;;12.57;3.03;;;;;;;10.73;100.00;98539.47;5050260;28;20162;-78
2023/03/10 09:26:35;;;;;;;11.75;2.72;;;;;;;10.59;100.00;98550.72;5049381;28;20068;-77
2023/03/10 09:29:01;;;;;;;12.90;3.30;;;;;;;10.50;100.00;98549.13;5031309;28;20087;-78
2023/03/10 09:31:32;;;;;;;10.75;2.65;;;;;;;10.31;100.00;98550.31;5049777;28;20423;-77
2023/03/10 09:33:58;;;;;;;9.82;2.70;;;;;;;10.16;100.00;98546.69;5049757;28;20100;-78
2023/03/10 09:36:23;;;;;;;9.60;2.47;;;;;;;10.09;100.00;98546.56;5032371;28;20069;-78
2023/03/10 09:38:50;;;;;;;10.02;2.72;;;;;;;10.03;100.00;98547.22;5032503;28;20045;-78
2023/03/10 09:41:22;;;;;;;10.25;2.35;;;;;;;9.97;100.00;98545.25;5049500;28;20029;-77
2023/03/10 09:43:57;;;;;;;12.68;2.40;;;;;;;9.88;100.00;98554.13;5050291;28;20374;-77
2023/03/10 09:46:43;;;;;;;10.77;2.80;;;;;;;9.87;100.00;98555.94;5049081;28;20060;-78
2023/03/10 09:49:26;;;;;;;10.25;2.78;;;;;;;9.89;100.00;98546.06;5065084;28;20029;-77
2023/03/10 09:51:52;;;;;;;11.68;2.78;;;;;;;9.89;100.00;98548.69;5065114;28;20056;-78
2023/03/10 09:54:17;;;;;;;10.40;2.85;;;;;;;9.93;100.00;98552.63;5030121;28;20025;-78
2023/03/10 09:56:44;;;;;;;14.35;3.15;;;;;;;10.02;100.00;98556.91;5030280;28;20551;-77
2023/03/10 09:59:16;;;;;;;9.82;2.45;;;;;;;10.00;100.00;98558.84;5011546;28;20487;-77
2023/03/10 10:01:46;;;;;;;10.50;3.00;;;;;;;10.05;100.00;98563.63;5028713;28;20498;-77
2023/03/10 10:04:26;;;;;;;12.77;2.70;;;;;;;10.07;100.00;98564.28;5029112;28;20286;-78
2023/03/10 10:06:54;;;;;;;12.85;2.90;;;;;;;10.10;100.00;98568.41;5028359;28;20360;-78
2023/03/10 10:09:38;;;;;;;9.35;2.70;;;;;;;10.05;100.00;98566.28;5033334;28;20033;-78
2023/03/10 10:12:12;;;;;;;11.55;2.92;;;;;;;10.02;100.00;98577.09;5027323;28;20025;-77
2023/03/10 10:14:38;;;;;;;10.65;2.80;;;;;;;9.89;100.00;98574.16;5035671;28;20025;-77
2023/03/10 10:17:24;;;;;;;10.75;3.13;;;;;;;9.80;100.00;98573.34;5047317;28;20119;-78
2023/03/10 10:19:51;;;;;;;13.15;3.08;;;;;;;9.68;100.00;98574.66;5048977;28;20029;-78
2023/03/10 10:22:29;;;;;;;13.15;3.33;;;;;;;9.59;100.00;98586.09;5063456;28;20021;-78
2023/03/10 10:25:01;;;;;;;11.02;3.17;;;;;;;9.51;100.00;98583.47;5039110;28;20107;-75
2023/03/10 10:27:29;;;;;;;13.52;3.33;;;;;;;9.45;100.00;98586.75;5028570;28;20040;-77
2023/03/10 10:29:55;;;;;;;12.63;3.42;;;;;;;9.45;100.00;98594.63;5027899;28;20100;-77
2023/03/10 10:32:20;;;;;;;12.68;3.33;;;;;;;9.42;100.00;98574.78;5030898;28;20379;-76
2023/03/10 10:34:47;;;;;;;12.15;2.90;;;;;;;9.45;100.00;98573.63;5048203;28;20104;-77
2023/03/10 10:37:41;;;;;;;17.20;3.85;;;;;;;9.51;100.00;98572.97;5046979;28;20047;-76
2023/03/10 10:40:24;;;;;;;14.52;3.15;;;;;;;9.56;100.00;98570.69;5064547;28;20052;-77
2023/03/10 10:42:55;;;;;;;13.75;3.40;;;;;;;9.51;100.00;98573.78;5065959;28;20029;-78
2023/03/10 10:45:33;;;;;;;13.18;3.38;;;;;;;9.49;100.00;98570.50;5055802;28;20059;-77
2023/03/10 10:47:59;;;;;;;15.10;3.90;;;;;;;9.52;100.00;98562.31;5073006;28;20067;-78
2023/03/10 10:50:28;;;;;;;12.73;3.70;;;;;;;9.48;100.00;98562.81;5072658;28;20488;-76
2023/03/10 10:53:46;;;;;;;15.45;4.07;;;;;;;9.50;100.00;98551.16;5073170;28;20111;-76
2023/03/10 10:56:18;;;;;;;10.25;3.45;;;;;;;9.43;100.00;98545.75;5029970;28;20087;-76
2023/03/10 10:59:04;;;;;;;14.88;3.45;;;;;;;9.38;100.00;98550.66;5070540;28;20039;-75
2023/03/10 11:02:08;;;;;;;10.68;3.70;;;;;;;9.40;100.00;98545.25;5055534;28;20056;-79
2023/03/10 11:04:44;;;;;;;9.13;3.00;;;;;;;9.38;100.00;98548.03;5041313;28;20063;-77
2023/03/10 11:07:15;;;;;;;10.98;2.83;;;;;;;9.33;100.00;98539.84;5053086;28;20111;-77
2023/03/10 11:09:41;;;;;;;10.23;2.70;;;;;;;9.29;100.00;98541.16;5035356;28;20025;-77
2023/03/10 11:12:30;;;;;;;13.05;3.25;;;;;;;9.29;100.00;98541.16;5052177;28;20507;-76
2023/03/10 11:15:11;;;;;;;8.43;2.70;;;;;;;9.30;100.00;98544.59;5052750;28;20033;-77
2023/03/10 11:17:50;;;;;;;8.98;2.70;;;;;;;9.32;100.00;98543.44;5055160;28;20063;-76
2023/03/10 11:20:26;;;;;;;9.70;2.67;;;;;;;9.28;100.00;98542.13;5072291;28;20135;-76
2023/03/10 11:23:12;;;;;;;7.30;2.45;;;;;;;9.32;100.00;98540.00;5072849;28;20024;-76
2023/03/10 11:25:45;;;;;;;8.32;2.47;;;;;;;9.33;100.00;98539.00;5053115;28;20028;-76
2023/03/10 11:29:03;;;;;;;6.85;2.38;;;;;;;9.37;100.00;98535.91;5071521;28;20605;-76
2023/03/10 11:31:59;;;;;;;6.38;2.53;;;;;;;9.36;100.00;98533.44;5047755;28;20044;-79
2023/03/10 11:34:33;;;;;;;6.13;2.50;;;;;;;9.32;100.00;98530.31;5070258;28;20105;-78
2023/03/10 11:37:41;;;;;;;5.00;2.40;;;;;;;9.37;100.00;98525.41;5052536;28;20039;-76
2023/03/10 11:40:46;;;;;;;4.75;2.78;;;;;;;9.34;100.00;98525.72;5028028;28;20042;-76